sensor_id;sensor_type;location;lat;lon;timestamp;pressure;altitude;pressure_sealevel;temperature;humidity
62025;BME280;47978;49.118;12.146;2023-02-02T00:00:44;97518.31;;;4.55;81.87
62025;BME280;47978;49.118;12.146;2023-02-02T00:04:46;97513.69;;;4.56;81.60
62025;BME280;47978;49.118;12.146;2023-02-02T00:08:48;97506.00;;;4.58;82.28
62025;BME280;47978;49.118;12.146;2023-02-02T00:12:51;97518.88;;;4.57;80.47
62025;BME280;47978;49.118;12.146;2023-02-02T00:16:52;97493.97;;;4.64;79.67
62025;BME280;47978;49.118;12.146;2023-02-02T00:20:54;97507.69;;;4.69;80.01
62025;BME280;47978;49.118;12.146;2023-02-02T00:24:55;97509.66;;;4.73;79.54
62025;BME280;47978;49.118;12.146;2023-02-02T00:28:58;97514.84;;;4.75;79.51
62025;BME280;47978;49.118;12.146;2023-02-02T00:33:00;97531.59;;;4.84;79.50
62025;BME280;47978;49.118;12.146;2023-02-02T00:37:01;97529.69;;;4.84;79.67
62025;BME280;47978;49.118;12.146;2023-02-02T00:41:02;97527.75;;;4.80;80.10
62025;BME280;47978;49.118;12.146;2023-02-02T00:45:06;97527.72;;;4.74;79.66
62025;BME280;47978;49.118;12.146;2023-02-02T00:49:07;97533.50;;;4.78;79.66
62025;BME280;47978;49.118;12.146;2023-02-02T00:53:09;97537.63;;;4.86;79.26
62025;BME280;47978;49.118;12.146;2023-02-02T00:57:11;97541.50;;;4.95;78.99
62025;BME280;47978;49.118;12.146;2023-02-02T01:01:15;97549.19;;;4.93;78.65
62025;BME280;47978;49.118;12.146;2023-02-02T01:05:17;97584.50;;;4.94;78.90
62025;BME280;47978;49.118;12.146;2023-02-02T01:09:19;97584.75;;;4.83;80.12
62025;BME280;47978;49.118;12.146;2023-02-02T01:13:20;97607.03;;;4.54;81.12
62025;BME280;47978;49.118;12.146;2023-02-02T01:17:23;97632.66;;;4.38;80.98
62025;BME280;47978;49.118;12.146;2023-02-02T01:21:24;97614.69;;;4.15;81.63
62025;BME280;47978;49.118;12.146;2023-02-02T01:25:26;97623.84;;;3.98;82.40
62025;BME280;47978;49.118;12.146;2023-02-02T01:29:27;97627.81;;;3.80;82.45
62025;BME280;47978;49.118;12.146;2023-02-02T01:33:30;97647.94;;;3.69;82.23
62025;BME280;47978;49.118;12.146;2023-02-02T01:37:31;97638.72;;;3.48;83.09
62025;BME280;47978;49.118;12.146;2023-02-02T01:41:32;97630.59;;;3.31;83.14
62025;BME280;47978;49.118;12.146;2023-02-02T01:45:34;97634.34;;;3.03;83.72
62025;BME280;47978;49.118;12.146;2023-02-02T01:49:37;97639.28;;;2.84;84.24
62025;BME280;47978;49.118;12.146;2023-02-02T01:53:39;97647.09;;;2.76;84.84
62025;BME280;47978;49.118;12.146;2023-02-02T01:57:42;97631.91;;;2.63;85.78
62025;BME280;47978;49.118;12.146;2023-02-02T02:01:45;97642.75;;;2.58;84.91
62025;BME280;47978;49.118;12.146;2023-02-02T02:05:51;97649.03;;;2.58;86.16
62025;BME280;47978;49.118;12.146;2023-02-02T02:09:54;97635.69;;;2.23;87.12
62025;BME280;47978;49.118;12.146;2023-02-02T02:13:56;97638.50;;;2.28;87.57
62025;BME280;47978;49.118;12.146;2023-02-02T02:18:00;97648.56;;;2.28;87.70
62025;BME280;47978;49.118;12.146;2023-02-02T02:22:06;97661.78;;;2.19;87.74
62025;BME280;47978;49.118;12.146;2023-02-02T02:26:19;97650.47;;;2.10;87.69
62025;BME280;47978;49.118;12.146;2023-02-02T02:30:48;97663.97;;;2.17;87.35
62025;BME280;47978;49.118;12.146;2023-02-02T02:34:53;97668.94;;;2.20;88.26
62025;BME280;47978;49.118;12.146;2023-02-02T02:38:58;97674.28;;;2.15;87.62
62025;BME280;47978;49.118;12.146;2023-02-02T02:43:03;97674.88;;;2.17;88.33
62025;BME280;47978;49.118;12.146;2023-02-02T02:47:06;97673.34;;;1.92;89.10
62025;BME280;47978;49.118;12.146;2023-02-02T02:55:26;97670.41;;;1.94;89.19
62025;BME280;47978;49.118;12.146;2023-02-02T02:59:33;97664.69;;;1.95;89.04
62025;BME280;47978;49.118;12.146;2023-02-02T03:03:40;97662.25;;;1.82;89.49
62025;BME280;47978;49.118;12.146;2023-02-02T03:07:46;97668.56;;;1.83;89.97
62025;BME280;47978;49.118;12.146;2023-02-02T03:11:50;97670.69;;;1.80;89.67
62025;BME280;47978;49.118;12.146;2023-02-02T03:15:52;97678.91;;;1.97;89.55
62025;BME280;47978;49.118;12.146;2023-02-02T03:19:53;97684.47;;;2.02;89.05
62025;BME280;47978;49.118;12.146;2023-02-02T03:23:55;97689.97;;;1.91;89.87
62025;BME280;47978;49.118;12.146;2023-02-02T03:27:57;97698.22;;;1.96;89.57
62025;BME280;47978;49.118;12.146;2023-02-02T03:31:59;97696.06;;;1.81;90.09
62025;BME280;47978;49.118;12.146;2023-02-02T03:36:00;97698.28;;;1.84;89.85
62025;BME280;47978;49.118;12.146;2023-02-02T03:40:02;97701.63;;;1.86;90.17
62025;BME280;47978;49.118;12.146;2023-02-02T03:44:05;97696.00;;;1.93;89.67
62025;BME280;47978;49.118;12.146;2023-02-02T03:48:06;97709.41;;;1.94;89.69
62025;BME280;47978;49.118;12.146;2023-02-02T03:52:08;97712.03;;;1.89;89.98
62025;BME280;47978;49.118;12.146;2023-02-02T03:56:09;97717.03;;;1.80;90.28
62025;BME280;47978;49.118;12.146;2023-02-02T04:00:12;97719.28;;;1.84;90.21
62025;BME280;47978;49.118;12.146;2023-02-02T04:04:14;97726.88;;;1.82;90.29
62025;BME280;47978;49.118;12.146;2023-02-02T04:08:15;97737.28;;;1.85;90.16
62025;BME280;47978;49.118;12.146;2023-02-02T04:12:17;97728.19;;;1.79;90.46
62025;BME280;47978;49.118;12.146;2023-02-02T04:16:19;97725.38;;;1.74;91.02
62025;BME280;47978;49.118;12.146;2023-02-02T04:20:21;97731.50;;;1.81;90.49
62025;BME280;47978;49.118;12.146;2023-02-02T04:24:22;97738.38;;;1.84;90.44
62025;BME280;47978;49.118;12.146;2023-02-02T04:28:24;97747.84;;;1.81;90.61
62025;BME280;47978;49.118;12.146;2023-02-02T04:32:27;97729.84;;;1.80;90.59
62025;BME280;47978;49.118;12.146;2023-02-02T04:36:28;97743.50;;;1.80;90.58
62025;BME280;47978;49.118;12.146;2023-02-02T04:40:30;97742.91;;;1.78;90.71
62025;BME280;47978;49.118;12.146;2023-02-02T04:44:31;97732.88;;;1.67;90.47
62025;BME280;47978;49.118;12.146;2023-02-02T04:48:34;97743.16;;;1.65;91.50
62025;BME280;47978;49.118;12.146;2023-02-02T04:52:35;97745.66;;;1.66;91.44
62025;BME280;47978;49.118;12.146;2023-02-02T04:56:37;97746.00;;;1.70;91.08
62025;BME280;47978;49.118;12.146;2023-02-02T05:00:38;97745.53;;;1.73;90.86
62025;BME280;47978;49.118;12.146;2023-02-02T05:04:41;97753.59;;;1.68;91.44
62025;BME280;47978;49.118;12.146;2023-02-02T05:08:42;97763.19;;;1.70;91.44
62025;BME280;47978;49.118;12.146;2023-02-02T05:12:43;97764.00;;;1.83;90.81
62025;BME280;47978;49.118;12.146;2023-02-02T05:16:45;97773.09;;;1.88;90.45
62025;BME280;47978;49.118;12.146;2023-02-02T05:20:48;97770.84;;;1.85;90.72
62025;BME280;47978;49.118;12.146;2023-02-02T05:24:49;97769.66;;;1.81;90.65
62025;BME280;47978;49.118;12.146;2023-02-02T05:28:50;97770.00;;;1.85;90.50
62025;BME280;47978;49.118;12.146;2023-02-02T05:32:52;97773.22;;;1.82;90.16
62025;BME280;47978;49.118;12.146;2023-02-02T05:36:54;97780.34;;;1.83;90.65
62025;BME280;47978;49.118;12.146;2023-02-02T05:40:56;97786.28;;;1.79;90.59
62025;BME280;47978;49.118;12.146;2023-02-02T05:44:57;97794.03;;;1.71;90.59
62025;BME280;47978;49.118;12.146;2023-02-02T05:48:59;97795.88;;;1.70;91.43
62025;BME280;47978;49.118;12.146;2023-02-02T05:53:01;97799.47;;;1.71;91.55
62025;BME280;47978;49.118;12.146;2023-02-02T05:57:03;97790.13;;;1.55;91.93
62025;BME280;47978;49.118;12.146;2023-02-02T06:01:04;97797.13;;;1.63;91.76
62025;BME280;47978;49.118;12.146;2023-02-02T06:05:06;97801.34;;;1.70;91.20
62025;BME280;47978;49.118;12.146;2023-02-02T06:09:09;97795.81;;;1.65;91.52
62025;BME280;47978;49.118;12.146;2023-02-02T06:13:10;97791.06;;;1.61;91.18
62025;BME280;47978;49.118;12.146;2023-02-02T06:17:11;97795.44;;;1.62;91.78
62025;BME280;47978;49.118;12.146;2023-02-02T06:21:13;97794.88;;;1.60;91.81
62025;BME280;47978;49.118;12.146;2023-02-02T06:25:15;97797.38;;;1.49;92.15
62025;BME280;47978;49.118;12.146;2023-02-02T06:29:17;97799.97;;;1.56;92.33
62025;BME280;47978;49.118;12.146;2023-02-02T06:33:18;97792.88;;;1.55;92.56
62025;BME280;47978;49.118;12.146;2023-02-02T06:37:19;97806.03;;;1.46;92.70
62025;BME280;47978;49.118;12.146;2023-02-02T06:41:22;97816.34;;;1.32;93.17
62025;BME280;47978;49.118;12.146;2023-02-02T06:45:24;97809.09;;;1.50;92.69
62025;BME280;47978;49.118;12.146;2023-02-02T06:49:26;97819.53;;;1.53;92.50
62025;BME280;47978;49.118;12.146;2023-02-02T06:53:27;97813.84;;;1.54;92.37
62025;BME280;47978;49.118;12.146;2023-02-02T06:57:30;97818.56;;;1.71;91.96
62025;BME280;47978;49.118;12.146;2023-02-02T07:01:31;97815.41;;;1.79;91.80
62025;BME280;47978;49.118;12.146;2023-02-02T07:05:32;97820.88;;;1.79;91.06
62025;BME280;47978;49.118;12.146;2023-02-02T07:09:34;97823.03;;;1.77;91.10
62025;BME280;47978;49.118;12.146;2023-02-02T07:13:37;97833.97;;;1.65;91.09
62025;BME280;47978;49.118;12.146;2023-02-02T07:17:38;97833.22;;;1.70;91.78
62025;BME280;47978;49.118;12.146;2023-02-02T07:21:39;97832.19;;;1.71;91.46
62025;BME280;47978;49.118;12.146;2023-02-02T07:25:41;97836.66;;;1.77;90.86
62025;BME280;47978;49.118;12.146;2023-02-02T07:29:45;97828.25;;;1.67;91.84
62025;BME280;47978;49.118;12.146;2023-02-02T07:33:47;97834.78;;;1.66;92.00
62025;BME280;47978;49.118;12.146;2023-02-02T07:37:50;97835.59;;;1.78;91.04
62025;BME280;47978;49.118;12.146;2023-02-02T07:41:51;97839.16;;;1.67;91.51
62025;BME280;47978;49.118;12.146;2023-02-02T07:45:57;97836.78;;;1.70;91.60
62025;BME280;47978;49.118;12.146;2023-02-02T07:49:58;97841.53;;;1.75;91.63
62025;BME280;47978;49.118;12.146;2023-02-02T07:54:00;97834.63;;;1.84;91.04
62025;BME280;47978;49.118;12.146;2023-02-02T07:58:01;97853.97;;;1.83;90.74
62025;BME280;47978;49.118;12.146;2023-02-02T08:02:04;97844.03;;;1.65;91.59
62025;BME280;47978;49.118;12.146;2023-02-02T08:06:09;97853.03;;;1.77;90.94
62025;BME280;47978;49.118;12.146;2023-02-02T08:10:12;97852.25;;;1.93;90.20
62025;BME280;47978;49.118;12.146;2023-02-02T08:14:13;97849.66;;;1.87;90.59
62025;BME280;47978;49.118;12.146;2023-02-02T08:18:16;97852.84;;;1.95;89.11
62025;BME280;47978;49.118;12.146;2023-02-02T08:22:17;97854.63;;;1.90;90.45
62025;BME280;47978;49.118;12.146;2023-02-02T08:26:21;97861.16;;;1.89;89.48
62025;BME280;47978;49.118;12.146;2023-02-02T08:30:22;97861.53;;;1.80;90.09
62025;BME280;47978;49.118;12.146;2023-02-02T08:34:25;97862.59;;;1.91;89.62
62025;BME280;47978;49.118;12.146;2023-02-02T08:38:27;97867.94;;;1.86;90.23
62025;BME280;47978;49.118;12.146;2023-02-02T08:42:28;97864.94;;;1.99;90.13
62025;BME280;47978;49.118;12.146;2023-02-02T08:46:29;97870.00;;;2.08;89.60
62025;BME280;47978;49.118;12.146;2023-02-02T08:50:32;97876.06;;;1.98;89.82
62025;BME280;47978;49.118;12.146;2023-02-02T08:54:33;97877.44;;;2.12;89.73
62025;BME280;47978;49.118;12.146;2023-02-02T08:58:35;97874.28;;;2.03;89.15
62025;BME280;47978;49.118;12.146;2023-02-02T09:02:36;97877.22;;;2.14;89.82
62025;BME280;47978;49.118;12.146;2023-02-02T09:06:39;97888.91;;;2.26;89.05
62025;BME280;47978;49.118;12.146;2023-02-02T09:10:41;97883.25;;;2.16;89.39
62025;BME280;47978;49.118;12.146;2023-02-02T09:14:42;97888.59;;;2.22;89.56
62025;BME280;47978;49.118;12.146;2023-02-02T09:18:44;97880.88;;;2.19;89.25
62025;BME280;47978;49.118;12.146;2023-02-02T09:22:47;97886.91;;;2.21;89.10
62025;BME280;47978;49.118;12.146;2023-02-02T09:26:48;97891.38;;;2.28;89.22
62025;BME280;47978;49.118;12.146;2023-02-02T09:30:50;97897.78;;;2.33;88.44
62025;BME280;47978;49.118;12.146;2023-02-02T09:34:51;97901.59;;;2.32;88.92
62025;BME280;47978;49.118;12.146;2023-02-02T09:38:54;97900.44;;;2.28;89.40
62025;BME280;47978;49.118;12.146;2023-02-02T09:43:03;97907.59;;;2.46;88.19
62025;BME280;47978;49.118;12.146;2023-02-02T09:47:08;97907.00;;;2.44;87.98
62025;BME280;47978;49.118;12.146;2023-02-02T09:51:13;97908.69;;;2.33;88.50
62025;BME280;47978;49.118;12.146;2023-02-02T09:55:20;97910.81;;;2.43;88.09
62025;BME280;47978;49.118;12.146;2023-02-02T09:59:26;97913.75;;;2.41;88.31
62025;BME280;47978;49.118;12.146;2023-02-02T10:03:30;97910.06;;;2.47;87.72
62025;BME280;47978;49.118;12.146;2023-02-02T10:07:36;97915.44;;;2.42;88.16
62025;BME280;47978;49.118;12.146;2023-02-02T10:11:42;97912.72;;;2.42;88.62
62025;BME280;47978;49.118;12.146;2023-02-02T10:15:47;97915.72;;;2.29;88.28
62025;BME280;47978;49.118;12.146;2023-02-02T10:19:51;97912.75;;;2.19;89.23
62025;BME280;47978;49.118;12.146;2023-02-02T10:23:55;97915.94;;;2.28;88.92
62025;BME280;47978;49.118;12.146;2023-02-02T10:27:59;97909.59;;;2.51;87.80
62025;BME280;47978;49.118;12.146;2023-02-02T10:32:06;97908.69;;;2.33;88.16
62025;BME280;47978;49.118;12.146;2023-02-02T10:36:13;97914.13;;;2.45;87.99
62025;BME280;47978;49.118;12.146;2023-02-02T10:40:20;97908.69;;;2.33;88.61
62025;BME280;47978;49.118;12.146;2023-02-02T10:44:30;97907.03;;;2.32;88.73
62025;BME280;47978;49.118;12.146;2023-02-02T10:48:34;97905.34;;;2.43;88.35
62025;BME280;47978;49.118;12.146;2023-02-02T10:52:36;97905.56;;;2.41;88.05
62025;BME280;47978;49.118;12.146;2023-02-02T10:56:39;97902.66;;;2.31;88.57
62025;BME280;47978;49.118;12.146;2023-02-02T11:00:46;97908.47;;;2.35;88.77
62025;BME280;47978;49.118;12.146;2023-02-02T11:04:50;97898.03;;;2.32;88.29
62025;BME280;47978;49.118;12.146;2023-02-02T11:08:52;97888.22;;;2.19;88.68
62025;BME280;47978;49.118;12.146;2023-02-02T11:12:53;97903.38;;;2.27;88.31
62025;BME280;47978;49.118;12.146;2023-02-02T11:17:00;97898.06;;;2.20;89.12
62025;BME280;47978;49.118;12.146;2023-02-02T11:21:02;97888.88;;;2.38;87.69
62025;BME280;47978;49.118;12.146;2023-02-02T11:25:04;97905.41;;;2.31;87.95
62025;BME280;47978;49.118;12.146;2023-02-02T11:29:11;97882.25;;;2.34;88.24
62025;BME280;47978;49.118;12.146;2023-02-02T11:33:24;97897.09;;;2.26;88.51
62025;BME280;47978;49.118;12.146;2023-02-02T11:37:26;97893.78;;;2.24;89.33
62025;BME280;47978;49.118;12.146;2023-02-02T11:41:28;97889.63;;;2.50;87.64
62025;BME280;47978;49.118;12.146;2023-02-02T11:45:32;97886.41;;;2.24;88.87
62025;BME280;47978;49.118;12.146;2023-02-02T11:49:37;97889.03;;;2.31;88.84
62025;BME280;47978;49.118;12.146;2023-02-02T11:53:43;97887.72;;;2.34;88.81
62025;BME280;47978;49.118;12.146;2023-02-02T12:02:13;97888.75;;;2.33;89.01
62025;BME280;47978;49.118;12.146;2023-02-02T12:06:23;97885.41;;;2.42;88.58
62025;BME280;47978;49.118;12.146;2023-02-02T12:10:26;97875.06;;;2.44;88.76
62025;BME280;47978;49.118;12.146;2023-02-02T12:14:31;97881.53;;;2.55;87.75
62025;BME280;47978;49.118;12.146;2023-02-02T12:18:38;97880.13;;;2.53;87.88
62025;BME280;47978;49.118;12.146;2023-02-02T12:22:52;97879.47;;;2.45;88.24
62025;BME280;47978;49.118;12.146;2023-02-02T12:27:10;97883.34;;;2.50;87.66
62025;BME280;47978;49.118;12.146;2023-02-02T12:31:15;97882.53;;;2.49;88.24
62025;BME280;47978;49.118;12.146;2023-02-02T12:35:23;97881.31;;;2.28;88.33
62025;BME280;47978;49.118;12.146;2023-02-02T12:39:31;97879.69;;;2.44;87.89
62025;BME280;47978;49.118;12.146;2023-02-02T12:43:36;97872.53;;;2.55;87.44
62025;BME280;47978;49.118;12.146;2023-02-02T12:47:40;97879.09;;;2.42;87.57
62025;BME280;47978;49.118;12.146;2023-02-02T12:51:48;97881.50;;;2.38;87.83
62025;BME280;47978;49.118;12.146;2023-02-02T12:55:59;97891.16;;;2.29;88.90
62025;BME280;47978;49.118;12.146;2023-02-02T13:00:13;97885.41;;;2.14;89.32
62025;BME280;47978;49.118;12.146;2023-02-02T13:04:22;97893.75;;;1.95;89.89
62025;BME280;47978;49.118;12.146;2023-02-02T13:08:29;97900.31;;;2.23;89.06
62025;BME280;47978;49.118;12.146;2023-02-02T13:12:34;97890.66;;;2.03;89.97
62025;BME280;47978;49.118;12.146;2023-02-02T13:16:38;97894.91;;;2.11;89.77
62025;BME280;47978;49.118;12.146;2023-02-02T13:20:42;97896.44;;;2.07;90.29
62025;BME280;47978;49.118;12.146;2023-02-02T13:24:46;97907.31;;;2.19;89.03
62025;BME280;47978;49.118;12.146;2023-02-02T13:28:51;97906.06;;;2.38;88.75
62025;BME280;47978;49.118;12.146;2023-02-02T13:32:55;97904.41;;;2.37;88.17
62025;BME280;47978;49.118;12.146;2023-02-02T13:36:59;97916.25;;;2.43;88.43
62025;BME280;47978;49.118;12.146;2023-02-02T13:41:04;97915.94;;;2.28;88.61
62025;BME280;47978;49.118;12.146;2023-02-02T13:45:14;97918.53;;;2.34;88.43
62025;BME280;47978;49.118;12.146;2023-02-02T13:49:22;97933.16;;;2.28;88.82
62025;BME280;47978;49.118;12.146;2023-02-02T13:53:33;97934.22;;;2.27;89.05
62025;BME280;47978;49.118;12.146;2023-02-02T13:57:50;97940.41;;;2.22;88.56
62025;BME280;47978;49.118;12.146;2023-02-02T14:02:00;97944.44;;;2.20;88.61
62025;BME280;47978;49.118;12.146;2023-02-02T14:06:03;97952.16;;;2.23;88.76
62025;BME280;47978;49.118;12.146;2023-02-02T14:10:05;97948.81;;;2.21;88.94
62025;BME280;47978;49.118;12.146;2023-02-02T14:14:08;97962.13;;;2.17;89.97
62025;BME280;47978;49.118;12.146;2023-02-02T14:18:15;97958.91;;;2.20;89.28
62025;BME280;47978;49.118;12.146;2023-02-02T14:22:37;97974.13;;;2.16;89.00
62025;BME280;47978;49.118;12.146;2023-02-02T14:26:40;97978.00;;;2.20;88.67
62025;BME280;47978;49.118;12.146;2023-02-02T14:30:42;97983.69;;;2.19;89.16
62025;BME280;47978;49.118;12.146;2023-02-02T14:34:45;97997.94;;;2.09;89.96
62025;BME280;47978;49.118;12.146;2023-02-02T14:38:58;98007.09;;;2.15;89.28
62025;BME280;47978;49.118;12.146;2023-02-02T14:43:05;98016.06;;;2.27;89.23
62025;BME280;47978;49.118;12.146;2023-02-02T14:51:33;98027.09;;;2.32;88.93
62025;BME280;47978;49.118;12.146;2023-02-02T14:55:52;98033.66;;;2.19;88.81
62025;BME280;47978;49.118;12.146;2023-02-02T14:59:55;98040.91;;;2.14;89.49
62025;BME280;47978;49.118;12.146;2023-02-02T15:04:16;98039.56;;;2.05;89.76
62025;BME280;47978;49.118;12.146;2023-02-02T15:08:23;98046.34;;;2.14;89.37
62025;BME280;47978;49.118;12.146;2023-02-02T15:12:26;98044.56;;;2.19;89.52
62025;BME280;47978;49.118;12.146;2023-02-02T15:16:29;98056.31;;;2.20;88.81
62025;BME280;47978;49.118;12.146;2023-02-02T15:20:32;98054.41;;;2.09;89.46
62025;BME280;47978;49.118;12.146;2023-02-02T15:24:36;98072.56;;;2.03;90.02
62025;BME280;47978;49.118;12.146;2023-02-02T15:28:39;98067.56;;;2.00;90.29
62025;BME280;47978;49.118;12.146;2023-02-02T15:32:42;98075.97;;;1.98;90.34
62025;BME280;47978;49.118;12.146;2023-02-02T15:36:44;98079.19;;;1.95;90.57
62025;BME280;47978;49.118;12.146;2023-02-02T15:40:47;98083.34;;;1.98;90.44
62025;BME280;47978;49.118;12.146;2023-02-02T15:44:49;98095.41;;;2.02;90.16
62025;BME280;47978;49.118;12.146;2023-02-02T15:53:17;98099.56;;;2.05;89.51
62025;BME280;47978;49.118;12.146;2023-02-02T15:57:25;98112.50;;;1.97;90.03
62025;BME280;47978;49.118;12.146;2023-02-02T16:01:28;98123.38;;;1.74;90.87
62025;BME280;47978;49.118;12.146;2023-02-02T16:05:44;98132.75;;;1.78;91.21
62025;BME280;47978;49.118;12.146;2023-02-02T16:09:46;98147.69;;;1.87;90.62
62025;BME280;47978;49.118;12.146;2023-02-02T16:13:55;98148.81;;;1.68;91.01
62025;BME280;47978;49.118;12.146;2023-02-02T16:17:57;98157.00;;;1.68;90.99
62025;BME280;47978;49.118;12.146;2023-02-02T16:21:59;98165.19;;;1.68;91.52
62025;BME280;47978;49.118;12.146;2023-02-02T16:26:02;98170.13;;;1.59;91.40
62025;BME280;47978;49.118;12.146;2023-02-02T16:30:07;98184.72;;;1.65;90.61
62025;BME280;47978;49.118;12.146;2023-02-02T16:34:13;98193.94;;;1.52;91.96
62025;BME280;47978;49.118;12.146;2023-02-02T16:38:20;98197.28;;;1.54;92.42
62025;BME280;47978;49.118;12.146;2023-02-02T16:42:23;98211.94;;;1.53;91.73
62025;BME280;47978;49.118;12.146;2023-02-02T16:46:39;98221.50;;;1.44;92.59
62025;BME280;47978;49.118;12.146;2023-02-02T16:50:41;98229.63;;;1.62;92.08
62025;BME280;47978;49.118;12.146;2023-02-02T16:54:48;98242.16;;;1.51;91.80
62025;BME280;47978;49.118;12.146;2023-02-02T16:58:50;98254.34;;;1.49;92.37
62025;BME280;47978;49.118;12.146;2023-02-02T17:02:54;98253.06;;;1.51;92.78
62025;BME280;47978;49.118;12.146;2023-02-02T17:07:04;98262.53;;;1.49;92.63
62025;BME280;47978;49.118;12.146;2023-02-02T17:11:06;98266.25;;;1.54;91.77
62025;BME280;47978;49.118;12.146;2023-02-02T17:19:42;98286.59;;;1.52;92.50
62025;BME280;47978;49.118;12.146;2023-02-02T17:23:44;98290.69;;;1.43;93.02
62025;BME280;47978;49.118;12.146;2023-02-02T17:27:45;98303.47;;;1.42;93.02
62025;BME280;47978;49.118;12.146;2023-02-02T17:31:47;98303.41;;;1.49;92.73
62025;BME280;47978;49.118;12.146;2023-02-02T17:35:50;98313.69;;;1.47;92.64
62025;BME280;47978;49.118;12.146;2023-02-02T17:39:56;98322.63;;;1.35;93.04
62025;BME280;47978;49.118;12.146;2023-02-02T17:43:57;98325.06;;;1.25;93.60
62025;BME280;47978;49.118;12.146;2023-02-02T17:47:59;98334.06;;;1.44;93.32
62025;BME280;47978;49.118;12.146;2023-02-02T17:52:02;98339.22;;;1.52;92.64
62025;BME280;47978;49.118;12.146;2023-02-02T17:56:03;98341.56;;;1.49;92.55
62025;BME280;47978;49.118;12.146;2023-02-02T18:00:05;98348.22;;;1.34;93.25
62025;BME280;47978;49.118;12.146;2023-02-02T18:04:08;98355.56;;;1.34;93.72
62025;BME280;47978;49.118;12.146;2023-02-02T18:08:12;98349.03;;;1.35;93.62
62025;BME280;47978;49.118;12.146;2023-02-02T18:12:14;98359.78;;;1.30;93.83
62025;BME280;47978;49.118;12.146;2023-02-02T18:16:15;98360.94;;;1.41;93.31
62025;BME280;47978;49.118;12.146;2023-02-02T18:20:16;98370.19;;;1.40;93.13
62025;BME280;47978;49.118;12.146;2023-02-02T18:24:19;98367.44;;;1.40;93.19
62025;BME280;47978;49.118;12.146;2023-02-02T18:28:21;98369.47;;;1.44;93.00
62025;BME280;47978;49.118;12.146;2023-02-02T18:32:22;98368.13;;;1.35;93.32
62025;BME280;47978;49.118;12.146;2023-02-02T18:36:24;98368.38;;;1.52;92.69
62025;BME280;47978;49.118;12.146;2023-02-02T18:40:26;98377.66;;;1.44;93.09
62025;BME280;47978;49.118;12.146;2023-02-02T18:44:28;98374.31;;;1.42;93.23
62025;BME280;47978;49.118;12.146;2023-02-02T18:48:29;98380.16;;;1.46;93.08
62025;BME280;47978;49.118;12.146;2023-02-02T18:52:31;98386.28;;;1.41;93.10
62025;BME280;47978;49.118;12.146;2023-02-02T18:56:33;98389.47;;;1.56;92.56
62025;BME280;47978;49.118;12.146;2023-02-02T19:00:35;98386.75;;;1.56;92.39
62025;BME280;47978;49.118;12.146;2023-02-02T19:04:36;98390.91;;;1.41;93.20
62025;BME280;47978;49.118;12.146;2023-02-02T19:08:37;98399.47;;;1.44;92.75
62025;BME280;47978;49.118;12.146;2023-02-02T19:12:40;98397.19;;;1.41;93.18
62025;BME280;47978;49.118;12.146;2023-02-02T19:16:43;98403.47;;;1.42;92.86
62025;BME280;47978;49.118;12.146;2023-02-02T19:20:45;98401.25;;;1.32;93.58
62025;BME280;47978;49.118;12.146;2023-02-02T19:24:47;98400.81;;;1.53;92.77
62025;BME280;47978;49.118;12.146;2023-02-02T19:28:50;98397.97;;;1.48;92.20
62025;BME280;47978;49.118;12.146;2023-02-02T19:32:52;98388.94;;;1.48;92.73
62025;BME280;47978;49.118;12.146;2023-02-02T19:36:53;98395.25;;;1.48;92.84
62025;BME280;47978;49.118;12.146;2023-02-02T19:40:54;98400.56;;;1.37;93.38
62025;BME280;47978;49.118;12.146;2023-02-02T19:44:57;98400.34;;;1.20;94.16
62025;BME280;47978;49.118;12.146;2023-02-02T19:49:00;98398.00;;;1.23;94.27
62025;BME280;47978;49.118;12.146;2023-02-02T19:53:09;98401.44;;;1.55;92.54
62025;BME280;47978;49.118;12.146;2023-02-02T19:57:14;98419.16;;;1.65;91.76
62025;BME280;47978;49.118;12.146;2023-02-02T20:01:19;98415.63;;;1.39;92.69
62025;BME280;47978;49.118;12.146;2023-02-02T20:05:21;98418.22;;;1.34;93.35
62025;BME280;47978;49.118;12.146;2023-02-02T20:09:23;98419.22;;;1.40;93.55
62025;BME280;47978;49.118;12.146;2023-02-02T20:13:26;98423.28;;;1.30;93.35
62025;BME280;47978;49.118;12.146;2023-02-02T20:17:35;98423.69;;;1.52;92.68
62025;BME280;47978;49.118;12.146;2023-02-02T20:21:37;98426.88;;;1.49;92.36
62025;BME280;47978;49.118;12.146;2023-02-02T20:25:39;98430.00;;;1.28;93.29
62025;BME280;47978;49.118;12.146;2023-02-02T20:29:41;98423.69;;;1.34;93.40
62025;BME280;47978;49.118;12.146;2023-02-02T20:33:45;98417.09;;;1.42;93.86
62025;BME280;47978;49.118;12.146;2023-02-02T20:37:47;98428.00;;;1.42;93.34
62025;BME280;47978;49.118;12.146;2023-02-02T20:41:48;98429.22;;;1.46;93.16
62025;BME280;47978;49.118;12.146;2023-02-02T20:45:50;98430.25;;;1.45;93.17
62025;BME280;47978;49.118;12.146;2023-02-02T20:49:53;98428.06;;;1.35;93.53
62025;BME280;47978;49.118;12.146;2023-02-02T20:53:54;98424.69;;;1.40;93.54
62025;BME280;47978;49.118;12.146;2023-02-02T20:57:56;98429.16;;;1.52;92.61
62025;BME280;47978;49.118;12.146;2023-02-02T21:01:57;98416.81;;;1.50;92.93
62025;BME280;47978;49.118;12.146;2023-02-02T21:06:00;98416.59;;;1.51;92.92
62025;BME280;47978;49.118;12.146;2023-02-02T21:10:02;98413.00;;;1.32;93.29
62025;BME280;47978;49.118;12.146;2023-02-02T21:14:03;98415.16;;;1.24;93.94
62025;BME280;47978;49.118;12.146;2023-02-02T21:18:05;98418.41;;;1.14;94.59
62025;BME280;47978;49.118;12.146;2023-02-02T21:22:07;98413.44;;;1.04;95.16
62025;BME280;47978;49.118;12.146;2023-02-02T21:26:09;98428.41;;;1.20;94.88
62025;BME280;47978;49.118;12.146;2023-02-02T21:30:11;98423.13;;;1.25;94.11
62025;BME280;47978;49.118;12.146;2023-02-02T21:34:12;98429.78;;;1.29;94.28
62025;BME280;47978;49.118;12.146;2023-02-02T21:38:15;98434.88;;;1.19;94.58
62025;BME280;47978;49.118;12.146;2023-02-02T21:42:17;98436.50;;;1.27;94.34
62025;BME280;47978;49.118;12.146;2023-02-02T21:46:22;98437.78;;;1.49;93.35
62025;BME280;47978;49.118;12.146;2023-02-02T21:50:26;98433.69;;;1.40;92.87